sensor_id;sensor_type;location;lat;lon;timestamp;P1;durP1;ratioP1;P2;durP2;ratioP2
36817;SDS011;22761;51.542;16.450;2022-07-25T00:00:48;2.10;;;1.45;;
36817;SDS011;22761;51.542;16.450;2022-07-25T00:03:15;2.37;;;1.85;;
36817;SDS011;22761;51.542;16.450;2022-07-25T00:05:42;2.67;;;1.70;;
36817;SDS011;22761;51.542;16.450;2022-07-25T00:08:09;4.00;;;1.77;;
36817;SDS011;22761;51.542;16.450;2022-07-25T00:10:37;3.25;;;1.60;;
36817;SDS011;22761;51.542;16.450;2022-07-25T00:13:04;2.70;;;1.77;;
36817;SDS011;22761;51.542;16.450;2022-07-25T00:15:31;3.15;;;1.80;;
36817;SDS011;22761;51.542;16.450;2022-07-25T00:17:58;1.85;;;1.40;;
36817;SDS011;22761;51.542;16.450;2022-07-25T00:20:26;2.15;;;1.60;;
36817;SDS011;22761;51.542;16.450;2022-07-25T00:22:53;2.58;;;1.45;;
36817;SDS011;22761;51.542;16.450;2022-07-25T00:25:20;1.55;;;1.32;;
36817;SDS011;22761;51.542;16.450;2022-07-25T00:27:47;2.10;;;1.42;;
36817;SDS011;22761;51.542;16.450;2022-07-25T00:30:14;2.37;;;1.40;;
36817;SDS011;22761;51.542;16.450;2022-07-25T00:32:41;1.85;;;1.37;;
36817;SDS011;22761;51.542;16.450;2022-07-25T00:35:08;2.10;;;1.35;;
36817;SDS011;22761;51.542;16.450;2022-07-25T00:37:36;4.03;;;1.80;;
36817;SDS011;22761;51.542;16.450;2022-07-25T00:40:03;1.40;;;1.22;;
36817;SDS011;22761;51.542;16.450;2022-07-25T00:42:31;3.85;;;1.50;;
36817;SDS011;22761;51.542;16.450;2022-07-25T00:44:59;2.98;;;1.87;;
36817;SDS011;22761;51.542;16.450;2022-07-25T00:47:26;1.98;;;1.25;;
36817;SDS011;22761;51.542;16.450;2022-07-25T00:49:53;1.90;;;1.42;;
36817;SDS011;22761;51.542;16.450;2022-07-25T00:52:21;1.85;;;1.45;;
36817;SDS011;22761;51.542;16.450;2022-07-25T00:54:49;4.42;;;1.60;;
36817;SDS011;22761;51.542;16.450;2022-07-25T00:57:16;5.60;;;1.50;;
36817;SDS011;22761;51.542;16.450;2022-07-25T00:59:44;1.98;;;1.67;;
36817;SDS011;22761;51.542;16.450;2022-07-25T01:02:11;2.90;;;2.00;;
36817;SDS011;22761;51.542;16.450;2022-07-25T01:04:38;1.72;;;1.25;;
36817;SDS011;22761;51.542;16.450;2022-07-25T01:07:06;2.15;;;1.47;;
36817;SDS011;22761;51.542;16.450;2022-07-25T01:09:33;2.05;;;1.47;;
36817;SDS011;22761;51.542;16.450;2022-07-25T01:12:01;2.58;;;1.45;;
36817;SDS011;22761;51.542;16.450;2022-07-25T01:14:29;1.90;;;1.52;;
36817;SDS011;22761;51.542;16.450;2022-07-25T01:16:56;2.45;;;1.60;;
36817;SDS011;22761;51.542;16.450;2022-07-25T01:19:23;3.27;;;1.77;;
36817;SDS011;22761;51.542;16.450;2022-07-25T01:21:50;2.20;;;1.67;;
36817;SDS011;22761;51.542;16.450;2022-07-25T01:24:17;1.72;;;1.40;;
36817;SDS011;22761;51.542;16.450;2022-07-25T01:26:44;2.50;;;1.67;;
36817;SDS011;22761;51.542;16.450;2022-07-25T01:29:11;3.35;;;1.62;;
36817;SDS011;22761;51.542;16.450;2022-07-25T01:31:39;4.78;;;1.70;;
36817;SDS011;22761;51.542;16.450;2022-07-25T01:34:06;2.77;;;1.80;;
36817;SDS011;22761;51.542;16.450;2022-07-25T01:36:33;2.77;;;1.80;;
36817;SDS011;22761;51.542;16.450;2022-07-25T01:39:00;2.25;;;1.72;;
36817;SDS011;22761;51.542;16.450;2022-07-25T01:41:27;2.52;;;1.60;;
36817;SDS011;22761;51.542;16.450;2022-07-25T01:43:54;2.62;;;1.55;;
36817;SDS011;22761;51.542;16.450;2022-07-25T01:46:21;2.77;;;1.70;;
36817;SDS011;22761;51.542;16.450;2022-07-25T01:48:49;1.85;;;1.55;;
36817;SDS011;22761;51.542;16.450;2022-07-25T01:51:15;2.90;;;1.50;;
36817;SDS011;22761;51.542;16.450;2022-07-25T01:53:43;2.65;;;1.65;;
36817;SDS011;22761;51.542;16.450;2022-07-25T01:56:10;2.42;;;1.67;;
36817;SDS011;22761;51.542;16.450;2022-07-25T01:58:37;2.42;;;1.92;;
36817;SDS011;22761;51.542;16.450;2022-07-25T02:01:05;2.83;;;1.77;;
36817;SDS011;22761;51.542;16.450;2022-07-25T02:03:32;3.67;;;1.82;;
36817;SDS011;22761;51.542;16.450;2022-07-25T02:06:00;2.87;;;1.70;;
36817;SDS011;22761;51.542;16.450;2022-07-25T02:08:31;2.87;;;2.00;;
36817;SDS011;22761;51.542;16.450;2022-07-25T02:10:59;2.85;;;1.62;;
36817;SDS011;22761;51.542;16.450;2022-07-25T02:13:26;3.65;;;1.65;;
36817;SDS011;22761;51.542;16.450;2022-07-25T02:15:54;2.80;;;1.80;;
36817;SDS011;22761;51.542;16.450;2022-07-25T02:18:21;5.97;;;2.20;;
36817;SDS011;22761;51.542;16.450;2022-07-25T02:20:48;2.37;;;1.70;;
36817;SDS011;22761;51.542;16.450;2022-07-25T02:23:15;2.33;;;1.45;;
36817;SDS011;22761;51.542;16.450;2022-07-25T02:25:42;2.10;;;1.62;;
36817;SDS011;22761;51.542;16.450;2022-07-25T02:28:10;3.55;;;1.72;;
36817;SDS011;22761;51.542;16.450;2022-07-25T02:30:37;1.70;;;1.60;;
36817;SDS011;22761;51.542;16.450;2022-07-25T02:33:04;2.40;;;1.70;;
36817;SDS011;22761;51.542;16.450;2022-07-25T02:35:31;2.47;;;2.17;;
36817;SDS011;22761;51.542;16.450;2022-07-25T02:37:59;8.90;;;1.90;;
36817;SDS011;22761;51.542;16.450;2022-07-25T02:40:26;2.27;;;1.98;;
36817;SDS011;22761;51.542;16.450;2022-07-25T02:42:53;3.05;;;1.70;;
36817;SDS011;22761;51.542;16.450;2022-07-25T02:45:20;4.12;;;1.82;;
36817;SDS011;22761;51.542;16.450;2022-07-25T02:47:47;2.12;;;1.77;;
36817;SDS011;22761;51.542;16.450;2022-07-25T02:50:15;3.90;;;2.05;;
36817;SDS011;22761;51.542;16.450;2022-07-25T02:52:42;3.10;;;2.22;;
36817;SDS011;22761;51.542;16.450;2022-07-25T02:55:10;4.45;;;1.75;;
36817;SDS011;22761;51.542;16.450;2022-07-25T02:57:38;3.75;;;1.55;;
36817;SDS011;22761;51.542;16.450;2022-07-25T03:00:05;2.65;;;1.90;;
36817;SDS011;22761;51.542;16.450;2022-07-25T03:02:33;2.45;;;2.02;;
36817;SDS011;22761;51.542;16.450;2022-07-25T03:05:01;3.37;;;1.80;;
36817;SDS011;22761;51.542;16.450;2022-07-25T03:07:37;1.77;;;1.65;;
36817;SDS011;22761;51.542;16.450;2022-07-25T03:10:06;3.33;;;1.95;;
36817;SDS011;22761;51.542;16.450;2022-07-25T03:12:35;2.87;;;2.00;;
36817;SDS011;22761;51.542;16.450;2022-07-25T03:15:04;3.30;;;2.00;;
36817;SDS011;22761;51.542;16.450;2022-07-25T03:19:59;3.05;;;1.80;;
36817;SDS011;22761;51.542;16.450;2022-07-25T03:22:27;2.90;;;2.08;;
36817;SDS011;22761;51.542;16.450;2022-07-25T03:24:54;3.22;;;2.25;;
36817;SDS011;22761;51.542;16.450;2022-07-25T03:27:21;4.17;;;2.00;;
36817;SDS011;22761;51.542;16.450;2022-07-25T03:29:48;2.85;;;2.10;;
36817;SDS011;22761;51.542;16.450;2022-07-25T03:32:15;2.92;;;2.22;;
36817;SDS011;22761;51.542;16.450;2022-07-25T03:34:42;2.83;;;2.22;;
36817;SDS011;22761;51.542;16.450;2022-07-25T03:37:09;3.52;;;1.98;;
36817;SDS011;22761;51.542;16.450;2022-07-25T03:39:36;6.42;;;2.02;;
36817;SDS011;22761;51.542;16.450;2022-07-25T03:42:03;2.60;;;2.02;;
36817;SDS011;22761;51.542;16.450;2022-07-25T03:44:31;3.08;;;2.35;;
36817;SDS011;22761;51.542;16.450;2022-07-25T03:46:58;2.77;;;2.45;;
36817;SDS011;22761;51.542;16.450;2022-07-25T03:49:25;3.27;;;2.02;;
36817;SDS011;22761;51.542;16.450;2022-07-25T03:51:52;4.15;;;1.65;;
36817;SDS011;22761;51.542;16.450;2022-07-25T03:54:19;3.83;;;2.00;;
36817;SDS011;22761;51.542;16.450;2022-07-25T03:56:47;3.15;;;2.58;;
36817;SDS011;22761;51.542;16.450;2022-07-25T03:59:17;3.08;;;2.22;;
36817;SDS011;22761;51.542;16.450;2022-07-25T04:04:17;3.30;;;2.40;;
36817;SDS011;22761;51.542;16.450;2022-07-25T04:06:44;2.98;;;2.10;;
36817;SDS011;22761;51.542;16.450;2022-07-25T04:09:12;2.98;;;2.12;;
36817;SDS011;22761;51.542;16.450;2022-07-25T04:11:40;2.20;;;1.90;;
36817;SDS011;22761;51.542;16.450;2022-07-25T04:14:08;3.15;;;2.30;;
36817;SDS011;22761;51.542;16.450;2022-07-25T04:16:35;2.42;;;2.08;;
36817;SDS011;22761;51.542;16.450;2022-07-25T04:19:03;4.70;;;2.40;;
36817;SDS011;22761;51.542;16.450;2022-07-25T04:21:30;2.72;;;2.00;;
36817;SDS011;22761;51.542;16.450;2022-07-25T04:23:57;3.95;;;2.27;;
36817;SDS011;22761;51.542;16.450;2022-07-25T04:26:25;6.15;;;2.40;;
36817;SDS011;22761;51.542;16.450;2022-07-25T04:28:51;4.95;;;2.52;;
36817;SDS011;22761;51.542;16.450;2022-07-25T04:31:19;3.42;;;2.20;;
36817;SDS011;22761;51.542;16.450;2022-07-25T04:33:45;5.35;;;2.37;;
36817;SDS011;22761;51.542;16.450;2022-07-25T04:36:12;5.17;;;2.10;;
36817;SDS011;22761;51.542;16.450;2022-07-25T04:38:39;2.75;;;2.10;;
36817;SDS011;22761;51.542;16.450;2022-07-25T04:41:06;4.03;;;2.27;;
36817;SDS011;22761;51.542;16.450;2022-07-25T04:43:34;2.60;;;2.17;;
36817;SDS011;22761;51.542;16.450;2022-07-25T04:46:01;4.20;;;2.30;;
36817;SDS011;22761;51.542;16.450;2022-07-25T04:48:28;3.27;;;2.12;;
36817;SDS011;22761;51.542;16.450;2022-07-25T04:50:56;3.15;;;2.05;;
36817;SDS011;22761;51.542;16.450;2022-07-25T04:53:23;3.08;;;2.12;;
36817;SDS011;22761;51.542;16.450;2022-07-25T04:55:50;4.22;;;2.10;;
36817;SDS011;22761;51.542;16.450;2022-07-25T04:58:17;4.33;;;2.20;;
36817;SDS011;22761;51.542;16.450;2022-07-25T05:00:45;3.90;;;2.25;;
36817;SDS011;22761;51.542;16.450;2022-07-25T05:03:12;2.47;;;2.02;;
36817;SDS011;22761;51.542;16.450;2022-07-25T05:05:39;10.60;;;2.12;;
36817;SDS011;22761;51.542;16.450;2022-07-25T05:08:06;4.97;;;2.15;;
36817;SDS011;22761;51.542;16.450;2022-07-25T05:10:34;3.58;;;2.08;;
36817;SDS011;22761;51.542;16.450;2022-07-25T05:13:01;3.05;;;1.90;;
36817;SDS011;22761;51.542;16.450;2022-07-25T05:15:29;5.35;;;2.00;;
36817;SDS011;22761;51.542;16.450;2022-07-25T05:17:56;3.62;;;2.20;;
36817;SDS011;22761;51.542;16.450;2022-07-25T05:20:25;3.75;;;2.00;;
36817;SDS011;22761;51.542;16.450;2022-07-25T05:22:52;3.58;;;2.08;;
36817;SDS011;22761;51.542;16.450;2022-07-25T05:25:19;3.17;;;2.00;;
36817;SDS011;22761;51.542;16.450;2022-07-25T05:27:46;3.85;;;2.50;;
36817;SDS011;22761;51.542;16.450;2022-07-25T05:30:16;3.90;;;2.27;;
36817;SDS011;22761;51.542;16.450;2022-07-25T05:32:44;2.50;;;2.12;;
36817;SDS011;22761;51.542;16.450;2022-07-25T05:35:11;3.70;;;2.17;;
36817;SDS011;22761;51.542;16.450;2022-07-25T05:37:40;2.95;;;2.08;;
36817;SDS011;22761;51.542;16.450;2022-07-25T05:40:09;3.07;;;2.10;;
36817;SDS011;22761;51.542;16.450;2022-07-25T05:42:38;4.28;;;2.20;;
36817;SDS011;22761;51.542;16.450;2022-07-25T05:45:05;3.47;;;2.00;;
36817;SDS011;22761;51.542;16.450;2022-07-25T05:47:33;4.83;;;1.85;;
36817;SDS011;22761;51.542;16.450;2022-07-25T05:50:00;6.05;;;2.20;;
36817;SDS011;22761;51.542;16.450;2022-07-25T05:52:27;5.37;;;2.37;;
36817;SDS011;22761;51.542;16.450;2022-07-25T05:54:54;5.10;;;2.50;;
36817;SDS011;22761;51.542;16.450;2022-07-25T05:57:22;3.70;;;2.10;;
36817;SDS011;22761;51.542;16.450;2022-07-25T05:59:49;3.17;;;2.25;;
36817;SDS011;22761;51.542;16.450;2022-07-25T06:02:19;4.70;;;2.33;;
36817;SDS011;22761;51.542;16.450;2022-07-25T06:04:46;5.35;;;2.02;;
36817;SDS011;22761;51.542;16.450;2022-07-25T06:07:13;3.40;;;2.10;;
36817;SDS011;22761;51.542;16.450;2022-07-25T06:09:40;2.42;;;2.08;;
36817;SDS011;22761;51.542;16.450;2022-07-25T06:12:07;6.08;;;2.25;;
36817;SDS011;22761;51.542;16.450;2022-07-25T06:14:38;4.33;;;2.08;;
36817;SDS011;22761;51.542;16.450;2022-07-25T06:17:03;4.83;;;2.53;;
36817;SDS011;22761;51.542;16.450;2022-07-25T06:19:30;3.92;;;2.25;;
36817;SDS011;22761;51.542;16.450;2022-07-25T06:21:57;2.60;;;2.00;;
36817;SDS011;22761;51.542;16.450;2022-07-25T06:24:24;4.22;;;2.27;;
36817;SDS011;22761;51.542;16.450;2022-07-25T06:26:51;3.52;;;2.30;;
36817;SDS011;22761;51.542;16.450;2022-07-25T06:29:18;4.53;;;2.40;;
36817;SDS011;22761;51.542;16.450;2022-07-25T06:31:45;3.83;;;1.95;;
36817;SDS011;22761;51.542;16.450;2022-07-25T06:34:12;3.65;;;1.98;;
36817;SDS011;22761;51.542;16.450;2022-07-25T06:36:39;4.00;;;2.22;;
36817;SDS011;22761;51.542;16.450;2022-07-25T06:39:06;3.95;;;2.12;;
36817;SDS011;22761;51.542;16.450;2022-07-25T06:41:33;3.05;;;2.05;;
36817;SDS011;22761;51.542;16.450;2022-07-25T06:44:02;2.20;;;2.00;;
36817;SDS011;22761;51.542;16.450;2022-07-25T06:46:31;3.73;;;2.00;;
36817;SDS011;22761;51.542;16.450;2022-07-25T06:48:58;5.40;;;2.37;;
36817;SDS011;22761;51.542;16.450;2022-07-25T06:51:25;2.67;;;1.90;;
36817;SDS011;22761;51.542;16.450;2022-07-25T06:53:52;3.10;;;1.92;;
36817;SDS011;22761;51.542;16.450;2022-07-25T06:56:19;4.87;;;1.87;;
36817;SDS011;22761;51.542;16.450;2022-07-25T06:58:47;3.95;;;1.87;;
36817;SDS011;22761;51.542;16.450;2022-07-25T07:01:14;3.27;;;2.00;;
36817;SDS011;22761;51.542;16.450;2022-07-25T07:03:41;3.87;;;1.82;;
36817;SDS011;22761;51.542;16.450;2022-07-25T07:06:08;6.20;;;2.10;;
36817;SDS011;22761;51.542;16.450;2022-07-25T07:08:35;5.37;;;1.90;;
36817;SDS011;22761;51.542;16.450;2022-07-25T07:11:03;2.30;;;1.75;;
36817;SDS011;22761;51.542;16.450;2022-07-25T07:13:32;4.10;;;1.75;;
36817;SDS011;22761;51.542;16.450;2022-07-25T07:16:03;6.97;;;1.55;;
36817;SDS011;22761;51.542;16.450;2022-07-25T07:18:30;2.80;;;1.65;;
36817;SDS011;22761;51.542;16.450;2022-07-25T07:20:57;5.15;;;1.57;;
36817;SDS011;22761;51.542;16.450;2022-07-25T07:23:24;3.65;;;1.60;;
36817;SDS011;22761;51.542;16.450;2022-07-25T07:25:51;2.55;;;1.60;;
36817;SDS011;22761;51.542;16.450;2022-07-25T07:28:19;6.00;;;1.75;;
36817;SDS011;22761;51.542;16.450;2022-07-25T07:30:46;2.58;;;1.50;;
36817;SDS011;22761;51.542;16.450;2022-07-25T07:33:13;2.83;;;1.40;;
36817;SDS011;22761;51.542;16.450;2022-07-25T07:35:42;2.30;;;1.30;;
36817;SDS011;22761;51.542;16.450;2022-07-25T07:38:10;2.02;;;1.20;;
36817;SDS011;22761;51.542;16.450;2022-07-25T07:40:37;2.83;;;1.30;;
36817;SDS011;22761;51.542;16.450;2022-07-25T07:43:04;3.55;;;1.30;;
36817;SDS011;22761;51.542;16.450;2022-07-25T07:45:31;2.62;;;1.20;;
36817;SDS011;22761;51.542;16.450;2022-07-25T07:47:58;8.43;;;1.32;;
36817;SDS011;22761;51.542;16.450;2022-07-25T07:50:25;2.67;;;1.10;;
36817;SDS011;22761;51.542;16.450;2022-07-25T07:52:53;2.70;;;1.10;;
36817;SDS011;22761;51.542;16.450;2022-07-25T07:55:21;2.25;;;1.20;;
36817;SDS011;22761;51.542;16.450;2022-07-25T07:58:08;2.08;;;1.35;;
36817;SDS011;22761;51.542;16.450;2022-07-25T08:00:40;7.90;;;2.00;;
36817;SDS011;22761;51.542;16.450;2022-07-25T08:03:11;7.12;;;1.35;;
36817;SDS011;22761;51.542;16.450;2022-07-25T08:05:41;1.70;;;1.10;;
36817;SDS011;22761;51.542;16.450;2022-07-25T08:08:10;3.27;;;1.20;;
36817;SDS011;22761;51.542;16.450;2022-07-25T08:13:24;4.47;;;0.90;;
36817;SDS011;22761;51.542;16.450;2022-07-25T08:15:54;1.45;;;1.00;;
36817;SDS011;22761;51.542;16.450;2022-07-25T08:18:25;5.83;;;1.30;;
36817;SDS011;22761;51.542;16.450;2022-07-25T08:20:57;2.80;;;0.90;;
36817;SDS011;22761;51.542;16.450;2022-07-25T08:23:27;1.42;;;1.00;;
36817;SDS011;22761;51.542;16.450;2022-07-25T08:25:56;2.42;;;1.35;;
36817;SDS011;22761;51.542;16.450;2022-07-25T08:28:24;1.27;;;1.12;;
36817;SDS011;22761;51.542;16.450;2022-07-25T08:30:51;2.52;;;0.90;;
36817;SDS011;22761;51.542;16.450;2022-07-25T08:33:18;1.90;;;1.00;;
36817;SDS011;22761;51.542;16.450;2022-07-25T08:35:46;2.87;;;1.20;;
36817;SDS011;22761;51.542;16.450;2022-07-25T08:38:17;1.82;;;0.98;;
36817;SDS011;22761;51.542;16.450;2022-07-25T08:40:44;2.22;;;1.12;;
36817;SDS011;22761;51.542;16.450;2022-07-25T08:43:12;1.50;;;1.10;;
36817;SDS011;22761;51.542;16.450;2022-07-25T08:45:45;2.30;;;1.22;;
36817;SDS011;22761;51.542;16.450;2022-07-25T08:48:16;4.78;;;1.20;;
36817;SDS011;22761;51.542;16.450;2022-07-25T08:50:46;2.25;;;1.15;;
36817;SDS011;22761;51.542;16.450;2022-07-25T08:53:14;1.50;;;1.00;;
36817;SDS011;22761;51.542;16.450;2022-07-25T08:55:44;4.25;;;1.07;;
36817;SDS011;22761;51.542;16.450;2022-07-25T08:58:12;2.62;;;1.10;;
36817;SDS011;22761;51.542;16.450;2022-07-25T09:00:42;2.45;;;1.00;;
36817;SDS011;22761;51.542;16.450;2022-07-25T09:03:10;2.85;;;1.15;;
36817;SDS011;22761;51.542;16.450;2022-07-25T09:05:38;1.90;;;1.10;;
36817;SDS011;22761;51.542;16.450;2022-07-25T09:08:13;2.67;;;1.40;;
36817;SDS011;22761;51.542;16.450;2022-07-25T09:10:46;1.98;;;1.20;;
36817;SDS011;22761;51.542;16.450;2022-07-25T09:13:16;4.42;;;1.22;;
36817;SDS011;22761;51.542;16.450;2022-07-25T09:15:47;3.62;;;1.20;;
36817;SDS011;22761;51.542;16.450;2022-07-25T09:18:20;2.27;;;1.02;;
36817;SDS011;22761;51.542;16.450;2022-07-25T09:20:54;1.75;;;1.12;;
36817;SDS011;22761;51.542;16.450;2022-07-25T09:23:28;1.25;;;1.10;;
36817;SDS011;22761;51.542;16.450;2022-07-25T09:26:04;4.00;;;1.17;;
36817;SDS011;22761;51.542;16.450;2022-07-25T09:28:47;1.00;;;0.90;;
36817;SDS011;22761;51.542;16.450;2022-07-25T09:31:18;2.35;;;1.30;;
36817;SDS011;22761;51.542;16.450;2022-07-25T09:33:50;1.45;;;1.12;;
36817;SDS011;22761;51.542;16.450;2022-07-25T09:36:22;3.77;;;1.27;;
36817;SDS011;22761;51.542;16.450;2022-07-25T09:38:53;1.92;;;1.25;;
36817;SDS011;22761;51.542;16.450;2022-07-25T09:41:35;2.90;;;1.47;;
36817;SDS011;22761;51.542;16.450;2022-07-25T09:44:15;3.22;;;1.20;;
36817;SDS011;22761;51.542;16.450;2022-07-25T09:46:47;3.17;;;1.07;;
36817;SDS011;22761;51.542;16.450;2022-07-25T09:49:16;2.00;;;1.10;;
36817;SDS011;22761;51.542;16.450;2022-07-25T09:51:44;1.27;;;1.17;;
36817;SDS011;22761;51.542;16.450;2022-07-25T09:54:12;2.80;;;1.30;;
36817;SDS011;22761;51.542;16.450;2022-07-25T09:56:40;4.83;;;1.40;;
36817;SDS011;22761;51.542;16.450;2022-07-25T09:59:08;4.25;;;1.50;;
36817;SDS011;22761;51.542;16.450;2022-07-25T10:01:36;3.58;;;1.27;;
36817;SDS011;22761;51.542;16.450;2022-07-25T10:04:31;3.50;;;2.62;;
36817;SDS011;22761;51.542;16.450;2022-07-25T10:09:31;4.87;;;4.05;;
36817;SDS011;22761;51.542;16.450;2022-07-25T10:12:05;2.98;;;2.62;;
36817;SDS011;22761;51.542;16.450;2022-07-25T10:14:37;9.07;;;2.00;;
36817;SDS011;22761;51.542;16.450;2022-07-25T10:17:05;2.47;;;2.02;;
36817;SDS011;22761;51.542;16.450;2022-07-25T10:19:45;5.58;;;1.45;;
36817;SDS011;22761;51.542;16.450;2022-07-25T10:22:14;4.60;;;1.55;;
36817;SDS011;22761;51.542;16.450;2022-07-25T10:24:46;4.62;;;1.50;;
36817;SDS011;22761;51.542;16.450;2022-07-25T10:27:23;2.60;;;1.87;;
36817;SDS011;22761;51.542;16.450;2022-07-25T10:29:51;2.25;;;1.50;;
36817;SDS011;22761;51.542;16.450;2022-07-25T10:32:19;4.78;;;1.70;;
36817;SDS011;22761;51.542;16.450;2022-07-25T10:34:52;4.28;;;1.70;;
36817;SDS011;22761;51.542;16.450;2022-07-25T10:37:25;4.45;;;1.90;;
36817;SDS011;22761;51.542;16.450;2022-07-25T10:39:53;3.50;;;1.77;;
36817;SDS011;22761;51.542;16.450;2022-07-25T10:42:21;1.98;;;1.37;;
36817;SDS011;22761;51.542;16.450;2022-07-25T10:44:52;1.25;;;1.12;;
36817;SDS011;22761;51.542;16.450;2022-07-25T10:47:23;3.22;;;1.15;;
36817;SDS011;22761;51.542;16.450;2022-07-25T10:49:56;1.90;;;1.10;;
36817;SDS011;22761;51.542;16.450;2022-07-25T10:52:28;2.50;;;1.10;;
36817;SDS011;22761;51.542;16.450;2022-07-25T10:54:57;1.12;;;1.02;;
36817;SDS011;22761;51.542;16.450;2022-07-25T10:57:27;2.25;;;1.20;;
36817;SDS011;22761;51.542;16.450;2022-07-25T11:00:02;4.08;;;1.10;;
36817;SDS011;22761;51.542;16.450;2022-07-25T11:02:33;1.05;;;0.98;;
36817;SDS011;22761;51.542;16.450;2022-07-25T11:05:01;1.70;;;1.07;;
36817;SDS011;22761;51.542;16.450;2022-07-25T11:07:29;3.27;;;0.93;;
36817;SDS011;22761;51.542;16.450;2022-07-25T11:09:59;4.00;;;0.80;;
36817;SDS011;22761;51.542;16.450;2022-07-25T11:12:29;3.70;;;1.00;;
36817;SDS011;22761;51.542;16.450;2022-07-25T11:15:06;1.22;;;0.90;;
36817;SDS011;22761;51.542;16.450;2022-07-25T11:17:30;2.90;;;1.12;;
36817;SDS011;22761;51.542;16.450;2022-07-25T11:20:00;2.42;;;1.22;;
36817;SDS011;22761;51.542;16.450;2022-07-25T11:22:31;2.12;;;1.20;;
36817;SDS011;22761;51.542;16.450;2022-07-25T11:25:00;1.50;;;0.90;;
36817;SDS011;22761;51.542;16.450;2022-07-25T11:27:30;6.05;;;1.10;;
36817;SDS011;22761;51.542;16.450;2022-07-25T11:32:44;1.32;;;1.20;;
36817;SDS011;22761;51.542;16.450;2022-07-25T11:35:23;1.25;;;1.07;;
36817;SDS011;22761;51.542;16.450;2022-07-25T11:37:56;1.90;;;1.07;;
36817;SDS011;22761;51.542;16.450;2022-07-25T11:40:27;1.00;;;0.80;;
36817;SDS011;22761;51.542;16.450;2022-07-25T11:42:55;2.10;;;1.00;;
36817;SDS011;22761;51.542;16.450;2022-07-25T11:45:32;2.42;;;1.00;;
36817;SDS011;22761;51.542;16.450;2022-07-25T11:48:08;4.10;;;1.00;;
36817;SDS011;22761;51.542;16.450;2022-07-25T11:50:39;1.52;;;1.20;;
36817;SDS011;22761;51.542;16.450;2022-07-25T11:53:10;2.67;;;1.00;;
36817;SDS011;22761;51.542;16.450;2022-07-25T11:55:39;1.62;;;0.90;;
36817;SDS011;22761;51.542;16.450;2022-07-25T11:58:09;4.30;;;1.15;;
36817;SDS011;22761;51.542;16.450;2022-07-25T12:00:39;2.90;;;0.98;;
36817;SDS011;22761;51.542;16.450;2022-07-25T12:03:17;2.45;;;1.00;;
36817;SDS011;22761;51.542;16.450;2022-07-25T12:05:43;1.62;;;1.00;;
36817;SDS011;22761;51.542;16.450;2022-07-25T12:08:11;1.67;;;1.00;;
36817;SDS011;22761;51.542;16.450;2022-07-25T12:10:40;3.15;;;1.30;;
36817;SDS011;22761;51.542;16.450;2022-07-25T12:13:22;2.22;;;1.10;;
36817;SDS011;22761;51.542;16.450;2022-07-25T12:15:52;2.50;;;1.30;;
36817;SDS011;22761;51.542;16.450;2022-07-25T12:18:25;2.55;;;0.90;;
36817;SDS011;22761;51.542;16.450;2022-07-25T12:20:52;5.90;;;1.27;;
36817;SDS011;22761;51.542;16.450;2022-07-25T12:23:19;2.80;;;1.27;;
36817;SDS011;22761;51.542;16.450;2022-07-25T12:25:47;2.55;;;1.20;;
36817;SDS011;22761;51.542;16.450;2022-07-25T12:28:14;1.35;;;1.15;;
36817;SDS011;22761;51.542;16.450;2022-07-25T12:30:42;1.02;;;0.93;;
36817;SDS011;22761;51.542;16.450;2022-07-25T12:33:12;3.37;;;1.40;;
36817;SDS011;22761;51.542;16.450;2022-07-25T12:35:40;2.37;;;1.10;;
36817;SDS011;22761;51.542;16.450;2022-07-25T12:38:09;1.40;;;1.00;;
36817;SDS011;22761;51.542;16.450;2022-07-25T12:43:04;1.55;;;1.20;;
36817;SDS011;22761;51.542;16.450;2022-07-25T12:45:32;1.77;;;0.98;;
36817;SDS011;22761;51.542;16.450;2022-07-25T12:47:59;2.20;;;1.10;;
36817;SDS011;22761;51.542;16.450;2022-07-25T12:50:26;1.92;;;1.17;;
36817;SDS011;22761;51.542;16.450;2022-07-25T12:52:53;3.22;;;1.17;;
36817;SDS011;22761;51.542;16.450;2022-07-25T12:55:20;6.70;;;1.20;;
36817;SDS011;22761;51.542;16.450;2022-07-25T12:57:48;2.00;;;1.07;;
36817;SDS011;22761;51.542;16.450;2022-07-25T13:00:16;1.53;;;1.20;;
36817;SDS011;22761;51.542;16.450;2022-07-25T13:02:46;3.35;;;1.05;;
36817;SDS011;22761;51.542;16.450;2022-07-25T13:05:16;2.58;;;1.12;;
36817;SDS011;22761;51.542;16.450;2022-07-25T13:07:44;1.45;;;1.02;;
36817;SDS011;22761;51.542;16.450;2022-07-25T13:10:12;1.25;;;0.95;;
36817;SDS011;22761;51.542;16.450;2022-07-25T13:12:40;2.00;;;1.10;;
36817;SDS011;22761;51.542;16.450;2022-07-25T13:15:07;4.08;;;1.20;;
36817;SDS011;22761;51.542;16.450;2022-07-25T13:17:35;3.15;;;1.20;;
36817;SDS011;22761;51.542;16.450;2022-07-25T13:20:03;5.53;;;1.22;;
36817;SDS011;22761;51.542;16.450;2022-07-25T13:22:32;1.37;;;1.00;;
36817;SDS011;22761;51.542;16.450;2022-07-25T13:25:00;1.50;;;1.00;;
36817;SDS011;22761;51.542;16.450;2022-07-25T13:27:28;1.40;;;1.02;;
36817;SDS011;22761;51.542;16.450;2022-07-25T13:29:55;2.17;;;1.50;;
36817;SDS011;22761;51.542;16.450;2022-07-25T13:32:23;1.75;;;0.85;;
36817;SDS011;22761;51.542;16.450;2022-07-25T13:34:52;2.98;;;1.10;;
36817;SDS011;22761;51.542;16.450;2022-07-25T13:37:20;1.75;;;1.00;;
36817;SDS011;22761;51.542;16.450;2022-07-25T13:39:47;3.37;;;1.55;;
36817;SDS011;22761;51.542;16.450;2022-07-25T13:42:14;2.62;;;1.17;;
36817;SDS011;22761;51.542;16.450;2022-07-25T13:44:41;2.45;;;1.12;;
36817;SDS011;22761;51.542;16.450;2022-07-25T13:47:08;1.95;;;1.00;;
36817;SDS011;22761;51.542;16.450;2022-07-25T13:49:35;3.33;;;1.12;;
36817;SDS011;22761;51.542;16.450;2022-07-25T13:52:03;2.30;;;1.20;;
36817;SDS011;22761;51.542;16.450;2022-07-25T13:54:31;8.13;;;1.37;;
36817;SDS011;22761;51.542;16.450;2022-07-25T13:56:58;1.60;;;1.25;;
36817;SDS011;22761;51.542;16.450;2022-07-25T13:59:28;4.00;;;1.50;;
36817;SDS011;22761;51.542;16.450;2022-07-25T14:01:55;1.82;;;1.22;;
36817;SDS011;22761;51.542;16.450;2022-07-25T14:04:22;2.92;;;1.20;;
36817;SDS011;22761;51.542;16.450;2022-07-25T14:06:49;3.00;;;1.42;;
36817;SDS011;22761;51.542;16.450;2022-07-25T14:09:18;1.73;;;1.30;;
36817;SDS011;22761;51.542;16.450;2022-07-25T14:11:46;4.33;;;1.02;;
36817;SDS011;22761;51.542;16.450;2022-07-25T14:14:14;3.80;;;1.47;;
36817;SDS011;22761;51.542;16.450;2022-07-25T14:16:42;1.87;;;1.30;;
36817;SDS011;22761;51.542;16.450;2022-07-25T14:19:09;2.80;;;1.50;;
36817;SDS011;22761;51.542;16.450;2022-07-25T14:21:37;2.35;;;1.57;;
36817;SDS011;22761;51.542;16.450;2022-07-25T14:24:04;4.17;;;1.52;;
36817;SDS011;22761;51.542;16.450;2022-07-25T14:26:32;2.75;;;1.32;;
36817;SDS011;22761;51.542;16.450;2022-07-25T14:31:28;1.15;;;0.90;;
36817;SDS011;22761;51.542;16.450;2022-07-25T14:33:56;2.87;;;1.10;;
36817;SDS011;22761;51.542;16.450;2022-07-25T14:36:23;3.47;;;1.30;;
36817;SDS011;22761;51.542;16.450;2022-07-25T14:38:50;2.80;;;1.40;;
36817;SDS011;22761;51.542;16.450;2022-07-25T14:41:17;1.75;;;1.07;;
36817;SDS011;22761;51.542;16.450;2022-07-25T14:43:45;1.75;;;1.40;;
36817;SDS011;22761;51.542;16.450;2022-07-25T14:46:13;1.60;;;1.50;;
36817;SDS011;22761;51.542;16.450;2022-07-25T14:48:40;5.90;;;1.70;;
36817;SDS011;22761;51.542;16.450;2022-07-25T14:51:08;4.85;;;1.50;;
36817;SDS011;22761;51.542;16.450;2022-07-25T14:53:35;1.95;;;1.75;;
36817;SDS011;22761;51.542;16.450;2022-07-25T14:56:02;2.35;;;1.60;;
36817;SDS011;22761;51.542;16.450;2022-07-25T14:58:31;2.27;;;1.57;;